Andover, SD

8:23 AM CDT on September 30, 2014 (GMT -0500)
Aberdeen Regional | Change Station
CLOSE
Current Station
Airport
Location: Aberdeen,
Elevation: 1299 ft
Nearby Weather Stations

Elev 1299 ft 45.44 °N, 98.41 °W | Updated 30 minutes ago

Partly Cloudy
Partly Cloudy
52 °F
Feels Like 52 °F
N
12
Wind Variable Wind from East

Today
High -- | Low -- °F
--% Chance of Precip.
Yesterday
High -- | Low -- °F
Precip. -- in
7:28 AM 7:13 PM
Waxing Crescent, 36% visible
Pressure 29.78 in
Visibility 10.0 miles
Clouds Clear
Dew Point 48 °F
Humidity 86%
Rainfall 0.00 in
Snow Depth 1 in
UV 0 out of 12
Pollen .80 out of 12
Air Quality Not available.
Flu Activity Not available.
METAR KABR 301253Z AUTO 10010KT 10SM CLR 11/09 A2978 RMK AO2 SLP085 T01110089

More Conditions Fewer Conditions

Pressure 29.78 in
Visibility 10.0 miles
Clouds Clear
Dew Point 48 °F
Humidity 86%
Rainfall 0.00 in
Snow Depth 1 in
UV 0 out of 12
Pollen .80 out of 12
Air Quality Not available.
Flu Activity Not available.
METAR KABR 301253Z AUTO 10010KT 10SM CLR 11/09 A2978 RMK AO2 SLP085 T01110089

More Conditions Fewer Conditions

10-Day Weather Forecast

Almanac

Astronomy

Sep. 30, 2014 Rise Set
Actual Time 7:28 AM CDT 7:13 PM CDT
Civil Twilight 6:59 AM CDT 7:43 PM CDT
Nautical Twilight 6:24 AM CDT 8:17 PM CDT
Astronomical Twilight 5:49 AM CDT 8:52 PM CDT
Moon 1:51 PM CDT 11:32 PM CDT
Length of Visible Light 12h 44m
Length of Day
11h 45m
Tomorrow will be 3m 9s shorter.
Waxing Crescent, 36% of the Moon is Illuminated
Today
Waxing Crescent
Oct 1
First Quarter
Oct 8
Full
Oct 15
Last Quarter
Oct 23
New

Today's Extremes

State Highs State Lows

Community

WunderPhotos

Upload Photos

1,757,637 photos uploaded!

Nearby

Snow Depth

Station Depth Elevation
Blind Park 1 in 6890 ft

Earthquake Activity

City Distance Mag. Time & Date
No recent earthquake activity has been reported nearby.
Minimum magnitude displayed is 2.5.

Coastal Water Temperatures

Place Temperature
No Stations Reporting

Nearby Weather Stations